createdAt,value
2023-05-16T00:04:12.921Z,62.88
2023-05-16T00:09:14.927Z,63.42
2023-05-16T00:14:16.910Z,63.63
2023-05-16T00:19:19.041Z,63.83
2023-05-16T00:24:21.968Z,63.86
2023-05-16T00:29:24.507Z,63.76
2023-05-16T00:34:26.776Z,64.07
2023-05-16T00:39:28.706Z,64.13
2023-05-16T00:44:31.032Z,64.13
2023-05-16T00:49:33.068Z,64.02
2023-05-16T00:54:34.741Z,63.94
2023-05-16T00:59:36.330Z,63.90
2023-05-16T01:04:37.776Z,63.84
2023-05-16T01:09:39.419Z,63.96
2023-05-16T01:14:50.317Z,64.36
2023-05-16T01:20:29.033Z,64.06
2023-05-16T01:25:45.517Z,64.10
2023-05-16T01:30:46.990Z,64.52
2023-05-16T01:36:06.395Z,64.14
2023-05-16T01:41:27.573Z,64.42
2023-05-16T01:46:34.241Z,64.57
2023-05-16T01:51:40.561Z,64.89
2023-05-16T01:56:54.306Z,64.57
2023-05-16T02:01:57.889Z,65.03
2023-05-16T02:07:01.035Z,65.14
2023-05-16T02:12:02.914Z,65.45
2023-05-16T02:17:04.511Z,65.77
2023-05-16T02:22:06.166Z,65.30
2023-05-16T02:27:07.527Z,65.56
2023-05-16T02:32:08.921Z,65.81
2023-05-16T02:37:13.086Z,65.85
2023-05-16T02:42:14.781Z,65.85
2023-05-16T02:47:16.213Z,65.70
2023-05-16T02:52:18.561Z,65.99
2023-05-16T02:57:19.974Z,66.00
2023-05-16T03:02:22.140Z,66.22
2023-05-16T03:07:23.579Z,65.99
2023-05-16T03:12:24.957Z,65.74
2023-05-16T03:17:26.524Z,66.17
2023-05-16T03:22:28.029Z,66.64
2023-05-16T03:27:29.466Z,66.47
2023-05-16T03:32:30.887Z,66.62
2023-05-16T03:37:32.380Z,66.15
2023-05-16T03:42:33.757Z,66.40
2023-05-16T03:47:35.345Z,66.54
2023-05-16T03:52:36.948Z,66.21
2023-05-16T03:57:38.539Z,66.27
2023-05-16T04:02:41.033Z,65.98
2023-05-16T04:07:42.677Z,66.28
2023-05-16T04:12:44.535Z,65.83
2023-05-16T04:17:46.389Z,66.00
2023-05-16T04:22:47.995Z,65.67
2023-05-16T04:27:49.386Z,65.62
2023-05-16T04:32:50.985Z,65.57
2023-05-16T04:37:52.349Z,65.39
2023-05-16T04:42:54.521Z,64.65
2023-05-16T04:47:55.937Z,65.12
2023-05-16T04:52:58.013Z,64.62
2023-05-16T04:57:59.392Z,64.56
2023-05-16T05:03:01.642Z,64.93
2023-05-16T05:08:04.036Z,64.69
2023-05-16T05:13:05.440Z,64.86
2023-05-16T05:18:06.964Z,64.74
2023-05-16T05:23:08.429Z,64.54
2023-05-16T05:28:09.862Z,64.51
2023-05-16T05:33:11.841Z,64.40
2023-05-16T05:38:13.557Z,64.13
2023-05-16T05:43:15.425Z,64.30
2023-05-16T05:48:16.925Z,63.25
2023-05-16T05:53:18.457Z,62.53
2023-05-16T05:58:21.345Z,62.04
2023-05-16T06:03:22.825Z,61.99
2023-05-16T06:08:24.407Z,61.76
2023-05-16T06:13:25.781Z,61.92
2023-05-16T06:18:27.144Z,61.75
2023-05-16T06:23:28.759Z,61.70
2023-05-16T06:28:30.403Z,61.72
2023-05-16T06:33:31.885Z,61.37
2023-05-16T06:38:33.366Z,61.33
2023-05-16T06:43:34.810Z,61.25
2023-05-16T06:48:36.374Z,61.33
2023-05-16T06:53:37.848Z,61.57
2023-05-16T06:58:40.297Z,61.66
2023-05-16T07:03:41.975Z,61.42
2023-05-16T07:08:43.498Z,61.91
2023-05-16T07:13:44.911Z,61.86
2023-05-16T07:18:46.363Z,61.86
2023-05-16T07:23:47.820Z,62.31
2023-05-16T07:28:52.849Z,61.80
2023-05-16T07:33:54.234Z,61.82
2023-05-16T07:38:55.686Z,61.55
2023-05-16T07:43:57.113Z,61.63
2023-05-16T07:48:58.501Z,62.40
2023-05-16T07:53:59.893Z,62.58
2023-05-16T07:59:01.483Z,62.87
2023-05-16T08:04:02.996Z,62.50
2023-05-16T08:09:04.498Z,62.52
2023-05-16T08:14:06.129Z,62.37
2023-05-16T08:19:07.624Z,62.42
2023-05-16T08:24:11.076Z,62.14
2023-05-16T08:29:12.518Z,62.16
2023-05-16T08:34:13.915Z,62.61
2023-05-16T08:39:15.393Z,62.48
2023-05-16T08:44:21.630Z,61.79
2023-05-16T08:49:26.862Z,61.72
2023-05-16T08:54:28.456Z,62.48
2023-05-16T08:59:30.470Z,62.21
2023-05-16T09:04:32.057Z,62.05
2023-05-16T09:09:33.503Z,61.70
2023-05-16T09:14:36.016Z,61.26
2023-05-16T09:19:42.190Z,60.96
2023-05-16T09:24:45.344Z,60.91
2023-05-16T09:29:51.005Z,60.43
2023-05-16T09:34:54.497Z,60.16
2023-05-16T09:39:56.023Z,59.00
2023-05-16T09:44:57.744Z,58.33
2023-05-16T09:50:00.273Z,57.05
2023-05-16T09:55:04.993Z,56.57
2023-05-16T10:00:10.351Z,56.04
2023-05-16T10:05:11.827Z,55.99
2023-05-16T10:10:14.358Z,55.54
2023-05-16T10:15:16.013Z,55.06
2023-05-16T10:20:18.450Z,54.78
2023-05-16T10:25:32.455Z,53.50
2023-05-16T10:30:35.083Z,52.39
2023-05-16T10:35:37.073Z,52.30
2023-05-16T10:40:40.148Z,51.71
2023-05-16T10:45:42.246Z,51.73
2023-05-16T10:50:45.561Z,51.35
2023-05-16T10:55:58.887Z,50.88
2023-05-16T11:01:19.698Z,49.88
2023-05-16T11:06:24.910Z,48.96
2023-05-16T11:11:39.823Z,48.18
2023-05-16T11:16:41.568Z,47.55
2023-05-16T11:22:31.012Z,47.15
2023-05-16T11:27:46.318Z,46.32
2023-05-16T11:32:48.650Z,46.75
2023-05-16T11:37:50.885Z,46.13
2023-05-16T11:42:52.554Z,45.67
2023-05-16T11:47:54.071Z,45.13
2023-05-16T11:52:57.454Z,44.19
2023-05-16T11:58:00.011Z,42.38
2023-05-16T12:03:05.530Z,40.79
2023-05-16T12:08:10.583Z,40.31
2023-05-16T12:13:12.263Z,38.09
2023-05-16T12:18:14.904Z,37.09
2023-05-16T12:23:16.363Z,36.28
2023-05-16T12:28:17.876Z,35.92
2023-05-16T12:33:20.002Z,35.87
2023-05-16T12:38:21.544Z,34.96
2023-05-16T12:43:23.353Z,34.66
2023-05-16T12:48:32.490Z,34.66
2023-05-16T12:53:54.311Z,33.96
2023-05-16T12:59:03.372Z,33.28
2023-05-16T13:04:05.298Z,32.86
2023-05-16T13:09:07.633Z,33.34
2023-05-16T13:14:09.113Z,32.51
2023-05-16T13:19:10.870Z,31.88
2023-05-16T13:24:12.317Z,31.04
2023-05-16T13:29:14.684Z,30.49
2023-05-16T13:34:16.271Z,30.55
2023-05-16T13:39:18.632Z,30.56
2023-05-16T13:44:21.512Z,30.12
2023-05-16T13:49:23.688Z,29.93
2023-05-16T13:54:25.319Z,30.69
2023-05-16T13:59:45.663Z,30.10
2023-05-16T14:04:49.987Z,29.39
2023-05-16T14:09:51.825Z,28.22
2023-05-16T14:14:54.764Z,28.01
2023-05-16T14:19:56.445Z,29.00
2023-05-16T14:24:58.153Z,29.12
2023-05-16T14:29:59.720Z,29.33
2023-05-16T14:35:01.160Z,29.18
2023-05-16T14:40:02.735Z,28.04
2023-05-16T14:45:04.810Z,26.73
2023-05-16T14:50:07.121Z,25.94
2023-05-16T14:55:08.665Z,26.50
2023-05-16T15:00:11.601Z,27.28
2023-05-16T15:05:13.079Z,27.16
2023-05-16T15:10:14.542Z,27.74
2023-05-16T15:15:16.766Z,28.23
2023-05-16T15:20:19.866Z,28.60
2023-05-16T15:25:22.669Z,28.17
2023-05-16T15:30:24.114Z,27.85
2023-05-16T15:35:26.267Z,28.11
2023-05-16T15:40:28.123Z,27.94
2023-05-16T15:45:29.823Z,28.40
2023-05-16T15:50:32.506Z,27.70
2023-05-16T15:55:34.178Z,28.17
2023-05-16T16:00:35.664Z,27.26
2023-05-16T16:05:37.356Z,27.34
2023-05-16T16:10:39.267Z,27.73
2023-05-16T16:15:42.132Z,27.11
2023-05-16T16:20:43.750Z,26.71
2023-05-16T16:25:45.364Z,26.23
2023-05-16T16:30:47.419Z,26.09
2023-05-16T16:35:49.055Z,26.08
2023-05-16T16:40:50.492Z,26.63
2023-05-16T16:45:52.111Z,26.88
2023-05-16T16:50:53.920Z,26.91
2023-05-16T16:55:55.623Z,27.34
2023-05-16T17:00:57.232Z,27.44
2023-05-16T17:05:58.794Z,27.62
2023-05-16T17:11:00.341Z,27.45
2023-05-16T17:16:01.993Z,28.24
2023-05-16T17:21:03.395Z,28.45
2023-05-16T17:26:04.861Z,29.28
2023-05-16T17:31:06.458Z,29.35
2023-05-16T17:36:08.077Z,28.50
2023-05-16T17:41:09.482Z,28.88
2023-05-16T17:46:11.243Z,28.45
2023-05-16T17:51:12.730Z,28.18
2023-05-16T17:56:14.184Z,27.94
2023-05-16T18:01:15.801Z,28.28
2023-05-16T18:06:17.320Z,29.27
2023-05-16T18:11:18.905Z,29.98
2023-05-16T18:16:20.390Z,30.38
2023-05-16T18:21:21.839Z,31.21
2023-05-16T18:26:23.352Z,32.23
2023-05-16T18:31:24.872Z,32.55
2023-05-16T18:36:26.292Z,33.04
2023-05-16T18:41:27.790Z,33.94
2023-05-16T18:46:29.338Z,34.47
2023-05-16T18:51:30.907Z,35.45
2023-05-16T18:56:33.010Z,35.92
2023-05-16T19:08:51.481Z,37.01
2023-05-16T19:13:53.568Z,37.50
2023-05-16T19:19:00.581Z,37.90
2023-05-16T19:24:06.016Z,38.62
2023-05-16T19:29:07.681Z,38.70
2023-05-16T19:39:38.908Z,39.29
2023-05-16T19:44:40.462Z,39.40
2023-05-16T19:49:41.879Z,39.93
2023-05-16T19:54:43.617Z,39.93
2023-05-16T19:59:45.164Z,40.47
2023-05-16T20:04:46.665Z,40.80
2023-05-16T20:09:48.194Z,41.51
2023-05-16T20:14:49.686Z,41.53
2023-05-16T20:19:51.150Z,41.71
2023-05-16T20:24:52.587Z,42.00
2023-05-16T20:29:54.317Z,42.33
2023-05-16T20:34:55.825Z,42.15
2023-05-16T20:39:57.236Z,42.45
2023-05-16T20:44:58.769Z,42.69
2023-05-16T20:50:00.277Z,43.31
2023-05-16T20:55:01.810Z,43.51
2023-05-16T21:00:04.058Z,43.49
2023-05-16T21:05:23.248Z,43.90
2023-05-16T21:10:26.594Z,44.56
2023-05-16T21:15:28.338Z,44.77
2023-05-16T21:20:30.072Z,45.06
2023-05-16T21:25:31.607Z,45.09
2023-05-16T21:30:33.340Z,45.48
2023-05-16T21:35:34.854Z,46.16
2023-05-16T21:40:36.313Z,46.46
2023-05-16T21:45:37.856Z,47.08
2023-05-16T21:50:39.392Z,46.96
2023-05-16T21:55:40.940Z,47.21
2023-05-16T22:00:42.370Z,47.79
2023-05-16T22:05:43.807Z,47.84
2023-05-16T22:10:45.230Z,47.89
2023-05-16T22:15:55.638Z,48.21
2023-05-16T22:21:06.240Z,48.80
2023-05-16T22:26:07.739Z,48.84
2023-05-16T22:31:09.157Z,49.28
2023-05-16T22:36:10.603Z,49.27
2023-05-16T22:41:12.059Z,49.64
2023-05-16T22:46:15.175Z,49.64
2023-05-16T22:51:16.652Z,49.99
2023-05-16T22:56:18.073Z,50.12
2023-05-16T23:01:19.505Z,50.61
2023-05-16T23:06:20.984Z,50.40
2023-05-16T23:11:23.027Z,50.67
2023-05-16T23:16:24.496Z,50.90
2023-05-16T23:21:26.069Z,51.36
2023-05-16T23:26:27.536Z,51.17
2023-05-16T23:31:28.908Z,51.56
2023-05-16T23:36:30.379Z,51.99
2023-05-16T23:41:31.760Z,51.69
2023-05-16T23:46:33.148Z,52.12
2023-05-16T23:51:52.266Z,52.66
2023-05-16T23:56:56.017Z,52.96
